Vilnius, Lithuania

9:43 PM EEST on October 17, 2018 (GMT +0300)
Vilnius International

Weather History for EYVI - October, 2018

Change the Weather History Date:

Friday, October 12, 2018

  Actual Average Record
Temperature  
Mean Temperature 54 °F -  
Max Temperature 63 °F 45 °F 67 °F (2014)
Min Temperature 44 °F 35 °F 24 °F (2004)
Degree Days  
Heating Degree Days 12    
Growing Degree Days 4 (Base 50)    
Moisture  
Dew Point 47 °F    
Average Humidity 83    
Maximum Humidity 100    
Minimum Humidity 52    
Precipitation  
Precipitation 0.00 in 0.07 in - ()
Sea Level Pressure  
Sea Level Pressure 30.48 in    
Wind  
Wind Speed 8 mph ()    
Max Wind Speed 13 mph    
Max Gust Speed -    
Visibility 9.5 miles    
Events Fog    
Averages and records for this station are not official NWS values.
T = Trace of Precipitation, MM = Missing Value Source: Averaged Metar Reports

Daily Weather History Graph

Daily Weather History Graph

Search for Another Location

Airport or City:

Astronomy

Oct. 12, 2018 Rise Set
Actual Time 7:41 AM EEST 6:28 PM EEST
Civil Twilight 7:05 AM EEST 7:04 PM EEST
Nautical Twilight 6:23 AM EEST 7:45 PM EEST
Astronomical Twilight 5:41 AM EEST 8:27 PM EEST
Moon 11:21 AM EEST (10/12) 8:24 PM EEST (10/12)
Length of Visible Light 11h 58m
Length of Day
10h 46m
Waxing Crescent, 12% of the Moon is Illuminated
Oct 12
Waxing Crescent
Oct 16
First Quarter
Oct 24
Full
Oct 31
Last Quarter
Nov 7
New

Hourly Weather History & Observations

Time (EEST) Temp. Windchill Dew Point Humidity Pressure Visibility Wind Dir Wind Speed Gust Speed Precip Events Conditions
12:00 AM 51 °F - 49 °F 89% 30.48 in 6 mi SE 6.7 mph - -   Mist
12:20 AM 51.8 °F - 48.2 °F 88% 30.48 in - SSE 10.4 mph - N/A   Clear
12:50 AM 50.0 °F - 48.2 °F 94% 30.48 in - SSE 10.4 mph - N/A   Clear
1:20 AM 50.0 °F - 48.2 °F 94% 30.48 in - SSE 10.4 mph - N/A   Clear
1:50 AM 50.0 °F - 46.4 °F 87% 30.48 in - SSE 9.2 mph - N/A   Clear
2:20 AM 50.0 °F - 46.4 °F 87% 30.48 in - SSE 9.2 mph - N/A   Clear
2:50 AM 50.0 °F - 46.4 °F 87% 30.48 in - SE 10.4 mph - N/A   Clear
3:00 AM 49 °F - 46 °F 87% 30.50 in 10 mi SE 6.7 mph - -  
3:20 AM 48.2 °F - 46.4 °F 93% 30.48 in - SSE 10.4 mph - N/A   Clear
3:50 AM 48.2 °F - 46.4 °F 93% 30.48 in - SSE 9.2 mph - N/A   Clear
4:20 AM 48.2 °F - 46.4 °F 93% 30.48 in - SSE 9.2 mph - N/A   Clear
4:50 AM 48.2 °F - 46.4 °F 93% 30.48 in - SSE 10.4 mph - N/A   Clear
5:20 AM 46.4 °F 41.9 °F 44.6 °F 93% 30.48 in - SSE 9.2 mph - N/A   Clear
5:50 AM 46.4 °F 42.4 °F 44.6 °F 93% 30.48 in - SSE 8.1 mph - N/A   Clear
6:00 AM 47 °F - 45 °F 89% 30.51 in 10 mi SSE 6.7 mph - -  
6:20 AM 44.6 °F 42.2 °F 42.8 °F 93% 30.48 in - South 4.6 mph - N/A   Clear
6:50 AM 44.6 °F 40.7 °F 44.6 °F 100% 30.48 in - SSE 6.9 mph - N/A   Clear
7:20 AM 44.6 °F 40.7 °F 44.6 °F 100% 30.48 in 6.2 mi SE 6.9 mph - N/A Fog Shallow Fog
7:50 AM 44.6 °F 40.2 °F 44.6 °F 100% 30.48 in 6.2 mi SE 8.1 mph - N/A Fog Shallow Fog
8:20 AM 46.4 °F 41.9 °F 44.6 °F 93% 30.48 in - SSE 9.2 mph - N/A   Clear
8:50 AM 46.4 °F 42.4 °F 44.6 °F 93% 30.48 in - SSE 8.1 mph - N/A   Clear
9:00 AM 46 °F - 45 °F 93% 30.52 in 9 mi SSE 6.7 mph - -  
9:20 AM 48.2 °F - 46.4 °F 93% 30.51 in - SSE 8.1 mph - N/A   Clear
10:20 AM 51.8 °F - 46.4 °F 82% 30.51 in - South 11.5 mph - N/A   Clear
10:50 AM 53.6 °F - 48.2 °F 82% 30.51 in - South 11.5 mph - N/A   Clear
11:20 AM 53.6 °F - 48.2 °F 82% 30.51 in - South 11.5 mph - N/A   Clear
11:50 AM 55.4 °F - 48.2 °F 77% 30.51 in - SSE 11.5 mph - N/A   Clear
12:00 PM 57 °F - 49 °F 65% 30.53 in 12 mi SSE 8.9 mph - -  
12:20 PM 57.2 °F - 50.0 °F 77% 30.51 in - SSE 10.4 mph - N/A   Clear
12:50 PM 59.0 °F - 50.0 °F 72% 30.51 in - SSE 10.4 mph - N/A   Clear
1:20 PM 59.0 °F - 50.0 °F 72% 30.51 in - SSE 10.4 mph - N/A   Clear
1:50 PM 59.0 °F - 50.0 °F 72% 30.51 in - SSE 11.5 mph - N/A   Clear
2:20 PM 60.8 °F - 50.0 °F 68% 30.48 in - SSE 10.4 mph - N/A   Clear
2:50 PM 60.8 °F - 51.8 °F 72% 30.48 in - SSE 8.1 mph - N/A   Clear
3:00 PM 63 °F - 50 °F 52% 30.50 in 12 mi SSE 8.9 mph - -  
3:20 PM 60.8 °F - 50.0 °F 68% 30.48 in - South 10.4 mph - N/A   Clear
3:50 PM 60.8 °F - 50.0 °F 68% 30.48 in - SSE 9.2 mph - N/A   Clear
4:20 PM 60.8 °F - 51.8 °F 72% 30.48 in - South 9.2 mph - N/A   Clear
4:50 PM 60.8 °F - 51.8 °F 72% 30.48 in - South 9.2 mph - N/A   Clear
5:20 PM 59.0 °F - 50.0 °F 72% 30.48 in - South 9.2 mph - N/A   Clear
5:50 PM 57.2 °F - 50.0 °F 77% 30.48 in - SSE 9.2 mph - N/A   Clear
6:00 PM 60 °F - 50 °F 60% 30.48 in 12 mi SSE 6.7 mph - -  
6:20 PM 55.4 °F - 48.2 °F 77% 30.45 in - SSE 8.1 mph - N/A   Clear
6:50 PM 53.6 °F - 48.2 °F 82% 30.45 in - SSE 8.1 mph - N/A   Clear
7:20 PM 53.6 °F - 48.2 °F 82% 30.45 in - South 8.1 mph - N/A   Clear
7:50 PM 51.8 °F - 46.4 °F 82% 30.48 in - South 8.1 mph - N/A   Clear
8:20 PM 51.8 °F - 46.4 °F 82% 30.48 in - South 10.4 mph - N/A   Clear
8:50 PM 50.0 °F - 46.4 °F 87% 30.48 in - SSE 6.9 mph - N/A   Clear
9:00 PM 51 °F - 46 °F 79% 30.50 in 12 mi SSE 6.7 mph - -  
9:20 PM 50.0 °F - 46.4 °F 87% 30.48 in - SSE 9.2 mph - N/A   Clear
9:50 PM 50.0 °F - 46.4 °F 87% 30.45 in - SSE 12.7 mph - N/A   Clear
10:20 PM 48.2 °F - 44.6 °F 87% 30.45 in - SSE 9.2 mph - N/A   Clear
10:50 PM 48.2 °F - 46.4 °F 93% 30.48 in - South 10.4 mph - N/A   Clear
11:20 PM 48.2 °F - 44.6 °F 87% 30.48 in - South 8.1 mph - N/A   Clear
11:50 PM 48.2 °F - 46.4 °F 93% 30.45 in - SSE 10.4 mph - N/A   Clear